sensor_id;sensor_type;location;lat;lon;timestamp;temperature;humidity
38223;DHT22;24024;51.186;6.458;2023-09-19T00:00:47;18.70;67.30
38223;DHT22;24024;51.186;6.458;2023-09-19T00:03:14;19.10;66.70
38223;DHT22;24024;51.186;6.458;2023-09-19T00:05:44;19.10;66.00
38223;DHT22;24024;51.186;6.458;2023-09-19T00:08:15;19.10;65.90
38223;DHT22;24024;51.186;6.458;2023-09-19T00:10:42;19.10;65.70
38223;DHT22;24024;51.186;6.458;2023-09-19T00:13:10;18.80;66.70
38223;DHT22;24024;51.186;6.458;2023-09-19T00:15:43;18.60;67.70
38223;DHT22;24024;51.186;6.458;2023-09-19T00:18:22;18.80;67.10
38223;DHT22;24024;51.186;6.458;2023-09-19T00:20:51;19.00;66.70
38223;DHT22;24024;51.186;6.458;2023-09-19T00:23:21;19.10;66.30
38223;DHT22;24024;51.186;6.458;2023-09-19T00:25:49;18.90;66.70
38223;DHT22;24024;51.186;6.458;2023-09-19T00:28:20;18.90;67.20
38223;DHT22;24024;51.186;6.458;2023-09-19T00:30:47;18.80;67.30
38223;DHT22;24024;51.186;6.458;2023-09-19T00:33:22;18.70;67.30
38223;DHT22;24024;51.186;6.458;2023-09-19T00:35:53;18.90;66.90
38223;DHT22;24024;51.186;6.458;2023-09-19T00:38:21;19.00;66.10
38223;DHT22;24024;51.186;6.458;2023-09-19T00:40:58;18.90;66.00
38223;DHT22;24024;51.186;6.458;2023-09-19T00:43:26;18.80;66.70
38223;DHT22;24024;51.186;6.458;2023-09-19T00:45:59;18.80;66.40
38223;DHT22;24024;51.186;6.458;2023-09-19T00:48:30;18.80;66.80
38223;DHT22;24024;51.186;6.458;2023-09-19T00:51:03;18.80;66.80
38223;DHT22;24024;51.186;6.458;2023-09-19T00:53:32;19.00;66.10
38223;DHT22;24024;51.186;6.458;2023-09-19T00:56:05;19.00;66.20
38223;DHT22;24024;51.186;6.458;2023-09-19T00:58:34;18.90;66.50
38223;DHT22;24024;51.186;6.458;2023-09-19T01:01:04;19.10;66.10
38223;DHT22;24024;51.186;6.458;2023-09-19T01:03:36;19.00;66.30
38223;DHT22;24024;51.186;6.458;2023-09-19T01:06:07;19.10;65.80
38223;DHT22;24024;51.186;6.458;2023-09-19T01:08:39;19.00;65.80
38223;DHT22;24024;51.186;6.458;2023-09-19T01:11:13;18.60;67.30
38223;DHT22;24024;51.186;6.458;2023-09-19T01:13:55;18.70;66.90
38223;DHT22;24024;51.186;6.458;2023-09-19T01:25:50;18.40;67.50
38223;DHT22;24024;51.186;6.458;2023-09-19T01:28:32;18.60;66.80
38223;DHT22;24024;51.186;6.458;2023-09-19T01:31:11;18.70;66.70
38223;DHT22;24024;51.186;6.458;2023-09-19T01:33:59;18.60;67.10
38223;DHT22;24024;51.186;6.458;2023-09-19T01:36:35;18.60;66.90
38223;DHT22;24024;51.186;6.458;2023-09-19T01:39:09;18.80;66.40
38223;DHT22;24024;51.186;6.458;2023-09-19T01:47:33;19.10;66.00
38223;DHT22;24024;51.186;6.458;2023-09-19T01:50:29;19.10;66.00
38223;DHT22;24024;51.186;6.458;2023-09-19T01:53:25;19.10;65.30
38223;DHT22;24024;51.186;6.458;2023-09-19T01:55:55;19.00;65.80
38223;DHT22;24024;51.186;6.458;2023-09-19T02:01:03;18.60;66.70
38223;DHT22;24024;51.186;6.458;2023-09-19T02:03:37;18.80;66.40
38223;DHT22;24024;51.186;6.458;2023-09-19T02:06:05;18.70;65.20
38223;DHT22;24024;51.186;6.458;2023-09-19T02:08:37;19.00;64.30
38223;DHT22;24024;51.186;6.458;2023-09-19T02:11:07;18.80;64.50
38223;DHT22;24024;51.186;6.458;2023-09-19T02:13:34;18.70;63.90
38223;DHT22;24024;51.186;6.458;2023-09-19T02:16:01;18.80;63.50
38223;DHT22;24024;51.186;6.458;2023-09-19T02:18:29;18.80;62.60
38223;DHT22;24024;51.186;6.458;2023-09-19T02:20:59;18.80;62.50
38223;DHT22;24024;51.186;6.458;2023-09-19T02:23:29;18.80;62.20
38223;DHT22;24024;51.186;6.458;2023-09-19T02:25:57;18.60;62.80
38223;DHT22;24024;51.186;6.458;2023-09-19T02:28:35;18.60;62.60
38223;DHT22;24024;51.186;6.458;2023-09-19T02:31:04;18.60;62.80
38223;DHT22;24024;51.186;6.458;2023-09-19T02:33:39;18.50;62.70
38223;DHT22;24024;51.186;6.458;2023-09-19T02:36:06;18.60;62.90
38223;DHT22;24024;51.186;6.458;2023-09-19T02:38:36;18.40;63.10
38223;DHT22;24024;51.186;6.458;2023-09-19T02:41:03;18.40;63.00
38223;DHT22;24024;51.186;6.458;2023-09-19T02:43:30;18.40;63.20
38223;DHT22;24024;51.186;6.458;2023-09-19T02:45:58;18.60;63.00
38223;DHT22;24024;51.186;6.458;2023-09-19T02:48:25;18.30;63.50
38223;DHT22;24024;51.186;6.458;2023-09-19T02:50:52;18.40;63.20
38223;DHT22;24024;51.186;6.458;2023-09-19T02:53:21;18.20;63.60
38223;DHT22;24024;51.186;6.458;2023-09-19T02:55:51;18.50;63.20
38223;DHT22;24024;51.186;6.458;2023-09-19T02:58:23;18.70;62.30
38223;DHT22;24024;51.186;6.458;2023-09-19T03:00:54;18.70;62.10
38223;DHT22;24024;51.186;6.458;2023-09-19T03:03:24;18.50;62.60
38223;DHT22;24024;51.186;6.458;2023-09-19T03:05:53;18.50;62.80
38223;DHT22;24024;51.186;6.458;2023-09-19T03:08:21;18.60;62.60
38223;DHT22;24024;51.186;6.458;2023-09-19T03:10:48;18.30;63.50
38223;DHT22;24024;51.186;6.458;2023-09-19T03:13:18;18.10;64.00
38223;DHT22;24024;51.186;6.458;2023-09-19T03:15:47;18.40;63.30
38223;DHT22;24024;51.186;6.458;2023-09-19T03:18:17;18.40;63.50
38223;DHT22;24024;51.186;6.458;2023-09-19T03:20:54;18.60;63.40
38223;DHT22;24024;51.186;6.458;2023-09-19T03:23:24;18.80;62.90
38223;DHT22;24024;51.186;6.458;2023-09-19T03:25:54;18.90;62.40
38223;DHT22;24024;51.186;6.458;2023-09-19T03:28:22;18.80;62.70
38223;DHT22;24024;51.186;6.458;2023-09-19T03:31:03;18.80;62.80
38223;DHT22;24024;51.186;6.458;2023-09-19T03:33:31;18.80;62.80
38223;DHT22;24024;51.186;6.458;2023-09-19T03:36:01;18.70;63.10
38223;DHT22;24024;51.186;6.458;2023-09-19T03:38:32;18.60;63.40
38223;DHT22;24024;51.186;6.458;2023-09-19T03:41:01;18.80;63.10
38223;DHT22;24024;51.186;6.458;2023-09-19T03:43:28;18.80;63.20
38223;DHT22;24024;51.186;6.458;2023-09-19T03:46:01;18.80;63.20
38223;DHT22;24024;51.186;6.458;2023-09-19T03:48:35;18.60;63.80
38223;DHT22;24024;51.186;6.458;2023-09-19T03:51:02;18.60;63.40
38223;DHT22;24024;51.186;6.458;2023-09-19T03:53:29;18.70;63.40
38223;DHT22;24024;51.186;6.458;2023-09-19T03:55:58;18.80;63.10
38223;DHT22;24024;51.186;6.458;2023-09-19T03:58:27;18.70;63.30
38223;DHT22;24024;51.186;6.458;2023-09-19T04:00:57;18.70;62.90
38223;DHT22;24024;51.186;6.458;2023-09-19T04:03:25;18.60;63.70
38223;DHT22;24024;51.186;6.458;2023-09-19T04:06:01;18.60;63.80
38223;DHT22;24024;51.186;6.458;2023-09-19T04:08:29;18.40;64.20
38223;DHT22;24024;51.186;6.458;2023-09-19T04:10:59;18.30;64.30
38223;DHT22;24024;51.186;6.458;2023-09-19T04:13:26;18.20;64.90
38223;DHT22;24024;51.186;6.458;2023-09-19T04:15:53;18.10;65.20
38223;DHT22;24024;51.186;6.458;2023-09-19T04:18:20;18.10;65.20
38223;DHT22;24024;51.186;6.458;2023-09-19T04:20:48;18.20;65.10
38223;DHT22;24024;51.186;6.458;2023-09-19T04:23:18;18.30;64.50
38223;DHT22;24024;51.186;6.458;2023-09-19T04:25:48;18.40;63.90
38223;DHT22;24024;51.186;6.458;2023-09-19T04:28:15;18.50;63.90
38223;DHT22;24024;51.186;6.458;2023-09-19T04:30:43;18.40;63.80
38223;DHT22;24024;51.186;6.458;2023-09-19T04:33:10;18.40;63.90
38223;DHT22;24024;51.186;6.458;2023-09-19T04:35:38;18.60;63.30
38223;DHT22;24024;51.186;6.458;2023-09-19T04:38:11;18.60;63.00
38223;DHT22;24024;51.186;6.458;2023-09-19T04:40:42;18.80;62.40
38223;DHT22;24024;51.186;6.458;2023-09-19T04:43:11;18.70;62.60
38223;DHT22;24024;51.186;6.458;2023-09-19T04:45:39;18.70;62.80
38223;DHT22;24024;51.186;6.458;2023-09-19T04:48:07;18.80;62.80
38223;DHT22;24024;51.186;6.458;2023-09-19T04:50:37;18.70;62.30
38223;DHT22;24024;51.186;6.458;2023-09-19T04:53:05;18.60;62.80
38223;DHT22;24024;51.186;6.458;2023-09-19T04:55:32;18.40;63.20
38223;DHT22;24024;51.186;6.458;2023-09-19T04:58:03;18.30;63.50
38223;DHT22;24024;51.186;6.458;2023-09-19T05:00:37;18.40;63.20
38223;DHT22;24024;51.186;6.458;2023-09-19T05:03:04;18.30;63.40
38223;DHT22;24024;51.186;6.458;2023-09-19T05:05:32;18.40;62.90
38223;DHT22;24024;51.186;6.458;2023-09-19T05:08:01;18.30;63.00
38223;DHT22;24024;51.186;6.458;2023-09-19T05:10:35;18.20;62.90
38223;DHT22;24024;51.186;6.458;2023-09-19T05:13:06;18.00;63.20
38223;DHT22;24024;51.186;6.458;2023-09-19T05:15:37;17.90;63.60
38223;DHT22;24024;51.186;6.458;2023-09-19T05:18:04;17.90;63.90
38223;DHT22;24024;51.186;6.458;2023-09-19T05:20:39;17.90;63.80
38223;DHT22;24024;51.186;6.458;2023-09-19T05:23:06;17.80;63.90
38223;DHT22;24024;51.186;6.458;2023-09-19T05:25:39;17.80;63.70
38223;DHT22;24024;51.186;6.458;2023-09-19T05:28:10;17.90;63.80
38223;DHT22;24024;51.186;6.458;2023-09-19T05:30:42;17.80;63.80
38223;DHT22;24024;51.186;6.458;2023-09-19T05:33:14;17.70;64.10
38223;DHT22;24024;51.186;6.458;2023-09-19T05:35:41;17.60;64.50
38223;DHT22;24024;51.186;6.458;2023-09-19T05:38:11;17.60;64.70
38223;DHT22;24024;51.186;6.458;2023-09-19T05:40:47;17.60;65.10
38223;DHT22;24024;51.186;6.458;2023-09-19T05:43:16;17.60;65.00
38223;DHT22;24024;51.186;6.458;2023-09-19T05:45:43;17.70;64.90
38223;DHT22;24024;51.186;6.458;2023-09-19T05:48:14;17.50;65.30
38223;DHT22;24024;51.186;6.458;2023-09-19T05:50:43;17.60;65.20
38223;DHT22;24024;51.186;6.458;2023-09-19T05:53:12;17.50;65.80
38223;DHT22;24024;51.186;6.458;2023-09-19T05:55:41;17.60;65.20
38223;DHT22;24024;51.186;6.458;2023-09-19T05:58:11;17.50;65.60
38223;DHT22;24024;51.186;6.458;2023-09-19T06:00:41;17.40;66.00
38223;DHT22;24024;51.186;6.458;2023-09-19T06:03:09;17.40;66.20
38223;DHT22;24024;51.186;6.458;2023-09-19T06:05:41;17.60;65.90
38223;DHT22;24024;51.186;6.458;2023-09-19T06:08:08;17.50;66.30
38223;DHT22;24024;51.186;6.458;2023-09-19T06:10:35;17.40;66.80
38223;DHT22;24024;51.186;6.458;2023-09-19T06:13:07;17.50;66.50
38223;DHT22;24024;51.186;6.458;2023-09-19T06:15:37;17.60;66.20
38223;DHT22;24024;51.186;6.458;2023-09-19T06:18:04;17.50;66.70
38223;DHT22;24024;51.186;6.458;2023-09-19T06:20:32;17.40;66.80
38223;DHT22;24024;51.186;6.458;2023-09-19T06:23:00;17.40;66.90
38223;DHT22;24024;51.186;6.458;2023-09-19T06:25:33;17.50;66.60
38223;DHT22;24024;51.186;6.458;2023-09-19T06:28:03;17.60;66.60
38223;DHT22;24024;51.186;6.458;2023-09-19T06:30:31;17.60;66.30
38223;DHT22;24024;51.186;6.458;2023-09-19T06:32:59;17.70;66.20
38223;DHT22;24024;51.186;6.458;2023-09-19T06:35:32;17.80;66.00
38223;DHT22;24024;51.186;6.458;2023-09-19T06:38:03;17.60;66.50
38223;DHT22;24024;51.186;6.458;2023-09-19T06:40:36;17.70;66.30
38223;DHT22;24024;51.186;6.458;2023-09-19T06:43:05;17.60;66.30
38223;DHT22;24024;51.186;6.458;2023-09-19T06:45:32;17.80;66.00
38223;DHT22;24024;51.186;6.458;2023-09-19T06:47:59;17.80;66.10
38223;DHT22;24024;51.186;6.458;2023-09-19T06:50:27;17.80;66.10
38223;DHT22;24024;51.186;6.458;2023-09-19T06:52:55;17.90;65.80
38223;DHT22;24024;51.186;6.458;2023-09-19T06:55:25;17.80;66.00
38223;DHT22;24024;51.186;6.458;2023-09-19T06:58:00;17.60;66.60
38223;DHT22;24024;51.186;6.458;2023-09-19T07:00:29;17.80;66.30
38223;DHT22;24024;51.186;6.458;2023-09-19T07:03:03;17.70;66.00
38223;DHT22;24024;51.186;6.458;2023-09-19T07:05:50;17.70;66.40
38223;DHT22;24024;51.186;6.458;2023-09-19T07:08:17;17.70;66.60
38223;DHT22;24024;51.186;6.458;2023-09-19T07:10:49;17.70;66.70
38223;DHT22;24024;51.186;6.458;2023-09-19T07:13:16;17.60;66.90
38223;DHT22;24024;51.186;6.458;2023-09-19T07:15:46;17.50;67.40
38223;DHT22;24024;51.186;6.458;2023-09-19T07:18:17;17.50;67.70
38223;DHT22;24024;51.186;6.458;2023-09-19T07:20:47;17.60;67.40
38223;DHT22;24024;51.186;6.458;2023-09-19T07:23:21;17.70;67.00
38223;DHT22;24024;51.186;6.458;2023-09-19T07:25:52;17.60;67.30
38223;DHT22;24024;51.186;6.458;2023-09-19T07:28:25;17.70;67.20
38223;DHT22;24024;51.186;6.458;2023-09-19T07:30:52;17.60;67.60
38223;DHT22;24024;51.186;6.458;2023-09-19T07:33:19;17.60;67.60
38223;DHT22;24024;51.186;6.458;2023-09-19T07:35:47;17.50;68.10
38223;DHT22;24024;51.186;6.458;2023-09-19T07:38:14;17.60;67.80
38223;DHT22;24024;51.186;6.458;2023-09-19T07:40:44;17.60;68.20
38223;DHT22;24024;51.186;6.458;2023-09-19T07:43:16;17.70;67.20
38223;DHT22;24024;51.186;6.458;2023-09-19T07:45:49;17.80;67.10
38223;DHT22;24024;51.186;6.458;2023-09-19T07:48:16;17.60;67.40
38223;DHT22;24024;51.186;6.458;2023-09-19T07:50:43;17.60;67.30
38223;DHT22;24024;51.186;6.458;2023-09-19T07:53:13;17.60;67.30
38223;DHT22;24024;51.186;6.458;2023-09-19T07:55:41;17.80;67.30
38223;DHT22;24024;51.186;6.458;2023-09-19T07:58:11;17.90;67.00
38223;DHT22;24024;51.186;6.458;2023-09-19T08:00:39;17.80;67.00
38223;DHT22;24024;51.186;6.458;2023-09-19T08:03:09;17.70;67.30
38223;DHT22;24024;51.186;6.458;2023-09-19T08:05:46;17.60;67.50
38223;DHT22;24024;51.186;6.458;2023-09-19T08:08:15;17.70;67.60
38223;DHT22;24024;51.186;6.458;2023-09-19T08:10:42;17.80;67.70
38223;DHT22;24024;51.186;6.458;2023-09-19T08:13:14;18.00;66.80
38223;DHT22;24024;51.186;6.458;2023-09-19T08:15:46;18.00;66.60
38223;DHT22;24024;51.186;6.458;2023-09-19T08:18:15;18.00;66.90
38223;DHT22;24024;51.186;6.458;2023-09-19T08:20:43;18.00;66.80
38223;DHT22;24024;51.186;6.458;2023-09-19T08:23:13;18.00;66.60
38223;DHT22;24024;51.186;6.458;2023-09-19T08:25:42;18.00;66.30
38223;DHT22;24024;51.186;6.458;2023-09-19T08:28:09;17.80;67.60
38223;DHT22;24024;51.186;6.458;2023-09-19T08:30:39;17.90;67.00
38223;DHT22;24024;51.186;6.458;2023-09-19T08:33:07;18.00;66.50
38223;DHT22;24024;51.186;6.458;2023-09-19T08:35:37;18.10;66.10
38223;DHT22;24024;51.186;6.458;2023-09-19T08:38:09;18.10;66.80
38223;DHT22;24024;51.186;6.458;2023-09-19T08:40:38;18.20;66.10
38223;DHT22;24024;51.186;6.458;2023-09-19T08:43:06;18.30;65.60
38223;DHT22;24024;51.186;6.458;2023-09-19T08:45:34;18.40;65.70
38223;DHT22;24024;51.186;6.458;2023-09-19T08:48:25;18.30;65.80
38223;DHT22;24024;51.186;6.458;2023-09-19T08:51:03;18.40;65.70
38223;DHT22;24024;51.186;6.458;2023-09-19T08:53:51;18.40;65.40
38223;DHT22;24024;51.186;6.458;2023-09-19T08:56:19;18.40;65.40
38223;DHT22;24024;51.186;6.458;2023-09-19T08:59:20;18.50;65.30
38223;DHT22;24024;51.186;6.458;2023-09-19T09:01:53;18.50;65.00
38223;DHT22;24024;51.186;6.458;2023-09-19T09:04:22;18.60;64.80
38223;DHT22;24024;51.186;6.458;2023-09-19T09:06:50;18.50;64.90
38223;DHT22;24024;51.186;6.458;2023-09-19T09:09:20;18.60;64.40
38223;DHT22;24024;51.186;6.458;2023-09-19T09:11:51;18.70;64.10
38223;DHT22;24024;51.186;6.458;2023-09-19T09:14:20;18.70;63.80
38223;DHT22;24024;51.186;6.458;2023-09-19T09:16:47;18.60;63.70
38223;DHT22;24024;51.186;6.458;2023-09-19T09:19:18;18.50;63.80
38223;DHT22;24024;51.186;6.458;2023-09-19T09:21:53;18.50;64.30
38223;DHT22;24024;51.186;6.458;2023-09-19T09:26:57;18.60;63.90
38223;DHT22;24024;51.186;6.458;2023-09-19T09:35:00;18.80;63.20
38223;DHT22;24024;51.186;6.458;2023-09-19T09:37:28;18.70;63.60
38223;DHT22;24024;51.186;6.458;2023-09-19T09:40:00;18.90;63.50
38223;DHT22;24024;51.186;6.458;2023-09-19T09:42:46;19.00;63.10
38223;DHT22;24024;51.186;6.458;2023-09-19T09:45:15;19.10;62.90
38223;DHT22;24024;51.186;6.458;2023-09-19T09:47:55;19.00;62.60
38223;DHT22;24024;51.186;6.458;2023-09-19T09:50:30;19.10;62.90
38223;DHT22;24024;51.186;6.458;2023-09-19T09:53:26;19.10;62.60
38223;DHT22;24024;51.186;6.458;2023-09-19T09:56:07;19.10;62.60
38223;DHT22;24024;51.186;6.458;2023-09-19T09:58:36;19.10;62.00
38223;DHT22;24024;51.186;6.458;2023-09-19T10:01:07;19.10;62.00
38223;DHT22;24024;51.186;6.458;2023-09-19T10:03:38;19.20;62.10
38223;DHT22;24024;51.186;6.458;2023-09-19T10:06:12;19.10;62.30
38223;DHT22;24024;51.186;6.458;2023-09-19T10:11:43;19.10;62.40
38223;DHT22;24024;51.186;6.458;2023-09-19T10:14:15;19.10;61.50
38223;DHT22;24024;51.186;6.458;2023-09-19T10:16:48;19.10;61.30
38223;DHT22;24024;51.186;6.458;2023-09-19T10:20:05;19.10;61.20
38223;DHT22;24024;51.186;6.458;2023-09-19T10:22:16;19.10;60.80
38223;DHT22;24024;51.186;6.458;2023-09-19T10:24:49;19.10;61.00
38223;DHT22;24024;51.186;6.458;2023-09-19T10:27:29;19.10;60.70
38223;DHT22;24024;51.186;6.458;2023-09-19T10:30:06;19.20;60.80
38223;DHT22;24024;51.186;6.458;2023-09-19T10:32:40;19.20;60.00
38223;DHT22;24024;51.186;6.458;2023-09-19T10:35:08;19.10;60.10
38223;DHT22;24024;51.186;6.458;2023-09-19T10:37:40;19.10;59.90
38223;DHT22;24024;51.186;6.458;2023-09-19T10:40:08;19.10;60.50
38223;DHT22;24024;51.186;6.458;2023-09-19T10:42:38;19.10;60.20
38223;DHT22;24024;51.186;6.458;2023-09-19T10:45:09;19.20;59.90
38223;DHT22;24024;51.186;6.458;2023-09-19T10:47:42;19.10;59.50
38223;DHT22;24024;51.186;6.458;2023-09-19T10:50:20;19.20;59.90
38223;DHT22;24024;51.186;6.458;2023-09-19T10:52:54;19.30;59.90
38223;DHT22;24024;51.186;6.458;2023-09-19T10:55:34;19.40;59.60
38223;DHT22;24024;51.186;6.458;2023-09-19T10:58:08;19.50;59.90
38223;DHT22;24024;51.186;6.458;2023-09-19T11:00:57;19.50;59.20
38223;DHT22;24024;51.186;6.458;2023-09-19T11:03:39;19.50;58.20
38223;DHT22;24024;51.186;6.458;2023-09-19T11:06:12;19.50;58.30
38223;DHT22;24024;51.186;6.458;2023-09-19T11:09:05;19.50;58.40
38223;DHT22;24024;51.186;6.458;2023-09-19T11:11:44;19.60;58.40
38223;DHT22;24024;51.186;6.458;2023-09-19T11:30:44;19.70;56.30
38223;DHT22;24024;51.186;6.458;2023-09-19T11:36:15;19.70;56.00
38223;DHT22;24024;51.186;6.458;2023-09-19T11:46:33;20.00;55.20
38223;DHT22;24024;51.186;6.458;2023-09-19T11:49:08;20.00;55.70
38223;DHT22;24024;51.186;6.458;2023-09-19T11:51:43;20.10;55.20
38223;DHT22;24024;51.186;6.458;2023-09-19T11:54:12;20.20;54.70
38223;DHT22;24024;51.186;6.458;2023-09-19T11:56:52;20.20;54.60
38223;DHT22;24024;51.186;6.458;2023-09-19T11:59:22;20.30;54.30
38223;DHT22;24024;51.186;6.458;2023-09-19T12:02:07;20.40;54.50
38223;DHT22;24024;51.186;6.458;2023-09-19T12:04:40;20.50;53.80
38223;DHT22;24024;51.186;6.458;2023-09-19T12:07:19;20.60;53.90
38223;DHT22;24024;51.186;6.458;2023-09-19T12:09:48;20.80;52.60
38223;DHT22;24024;51.186;6.458;2023-09-19T12:12:26;20.80;52.80
38223;DHT22;24024;51.186;6.458;2023-09-19T12:14:56;20.90;52.60
38223;DHT22;24024;51.186;6.458;2023-09-19T12:17:40;21.00;52.30
38223;DHT22;24024;51.186;6.458;2023-09-19T12:20:11;21.10;52.20
38223;DHT22;24024;51.186;6.458;2023-09-19T12:22:46;21.10;51.40
38223;DHT22;24024;51.186;6.458;2023-09-19T12:25:19;21.20;52.60
38223;DHT22;24024;51.186;6.458;2023-09-19T12:27:52;21.40;52.60
38223;DHT22;24024;51.186;6.458;2023-09-19T12:30:30;21.50;51.40
38223;DHT22;24024;51.186;6.458;2023-09-19T12:33:00;21.60;51.10
38223;DHT22;24024;51.186;6.458;2023-09-19T12:35:31;21.70;51.00
38223;DHT22;24024;51.186;6.458;2023-09-19T12:38:04;21.90;51.10
38223;DHT22;24024;51.186;6.458;2023-09-19T12:40:33;22.00;50.50
38223;DHT22;24024;51.186;6.458;2023-09-19T12:43:07;22.10;50.60
38223;DHT22;24024;51.186;6.458;2023-09-19T12:45:35;22.10;49.70
38223;DHT22;24024;51.186;6.458;2023-09-19T12:48:24;22.00;49.40
38223;DHT22;24024;51.186;6.458;2023-09-19T12:56:11;22.00;49.80
38223;DHT22;24024;51.186;6.458;2023-09-19T13:01:24;22.10;49.10
38223;DHT22;24024;51.186;6.458;2023-09-19T13:06:51;22.00;49.40
38223;DHT22;24024;51.186;6.458;2023-09-19T13:09:23;22.10;50.00
38223;DHT22;24024;51.186;6.458;2023-09-19T13:11:55;22.10;50.00
38223;DHT22;24024;51.186;6.458;2023-09-19T13:14:25;22.10;50.00
38223;DHT22;24024;51.186;6.458;2023-09-19T13:17:08;22.10;49.30
38223;DHT22;24024;51.186;6.458;2023-09-19T13:19:48;22.00;49.20
38223;DHT22;24024;51.186;6.458;2023-09-19T13:25:16;22.10;50.60
38223;DHT22;24024;51.186;6.458;2023-09-19T13:27:50;22.10;49.80
38223;DHT22;24024;51.186;6.458;2023-09-19T13:30:23;22.00;49.40
38223;DHT22;24024;51.186;6.458;2023-09-19T13:32:52;21.80;50.10
38223;DHT22;24024;51.186;6.458;2023-09-19T13:35:23;21.80;50.50
38223;DHT22;24024;51.186;6.458;2023-09-19T13:37:50;21.70;50.60
38223;DHT22;24024;51.186;6.458;2023-09-19T13:40:18;21.60;51.00
38223;DHT22;24024;51.186;6.458;2023-09-19T13:42:45;21.40;51.50
38223;DHT22;24024;51.186;6.458;2023-09-19T13:45:12;21.30;52.20
38223;DHT22;24024;51.186;6.458;2023-09-19T13:47:42;21.40;52.30
38223;DHT22;24024;51.186;6.458;2023-09-19T13:50:09;21.50;52.00
38223;DHT22;24024;51.186;6.458;2023-09-19T13:52:36;21.40;51.90
38223;DHT22;24024;51.186;6.458;2023-09-19T13:55:05;21.40;52.60
38223;DHT22;24024;51.186;6.458;2023-09-19T13:57:33;21.40;52.10
38223;DHT22;24024;51.186;6.458;2023-09-19T14:00:00;21.50;52.30
38223;DHT22;24024;51.186;6.458;2023-09-19T14:02:27;21.40;52.50
38223;DHT22;24024;51.186;6.458;2023-09-19T14:04:56;21.30;52.70
38223;DHT22;24024;51.186;6.458;2023-09-19T14:07:24;21.30;53.00
38223;DHT22;24024;51.186;6.458;2023-09-19T14:09:52;21.30;52.90
38223;DHT22;24024;51.186;6.458;2023-09-19T14:12:26;21.30;53.20
38223;DHT22;24024;51.186;6.458;2023-09-19T14:14:55;21.30;53.40
38223;DHT22;24024;51.186;6.458;2023-09-19T14:17:24;21.40;53.00
38223;DHT22;24024;51.186;6.458;2023-09-19T14:19:53;21.30;53.30
38223;DHT22;24024;51.186;6.458;2023-09-19T14:22:22;21.40;52.80
38223;DHT22;24024;51.186;6.458;2023-09-19T14:24:51;21.30;53.30
38223;DHT22;24024;51.186;6.458;2023-09-19T14:27:21;21.30;53.30
38223;DHT22;24024;51.186;6.458;2023-09-19T14:29:48;21.30;53.30
38223;DHT22;24024;51.186;6.458;2023-09-19T14:32:20;21.30;53.60
38223;DHT22;24024;51.186;6.458;2023-09-19T14:34:49;21.30;53.10
38223;DHT22;24024;51.186;6.458;2023-09-19T14:37:18;21.30;52.80
38223;DHT22;24024;51.186;6.458;2023-09-19T14:39:47;21.30;53.20
38223;DHT22;24024;51.186;6.458;2023-09-19T14:42:17;21.30;52.80
38223;DHT22;24024;51.186;6.458;2023-09-19T14:44:44;21.30;53.00
38223;DHT22;24024;51.186;6.458;2023-09-19T14:47:14;21.20;52.90
38223;DHT22;24024;51.186;6.458;2023-09-19T14:49:45;21.10;52.90
38223;DHT22;24024;51.186;6.458;2023-09-19T14:52:12;21.20;53.00
38223;DHT22;24024;51.186;6.458;2023-09-19T14:54:42;21.20;52.60
38223;DHT22;24024;51.186;6.458;2023-09-19T14:57:09;21.20;52.80
38223;DHT22;24024;51.186;6.458;2023-09-19T14:59:36;21.30;52.60
38223;DHT22;24024;51.186;6.458;2023-09-19T15:02:06;21.30;53.10
38223;DHT22;24024;51.186;6.458;2023-09-19T15:04:36;21.20;52.80
38223;DHT22;24024;51.186;6.458;2023-09-19T15:07:10;21.10;53.00
38223;DHT22;24024;51.186;6.458;2023-09-19T15:09:41;21.10;53.10
38223;DHT22;24024;51.186;6.458;2023-09-19T15:12:08;21.20;53.30
38223;DHT22;24024;51.186;6.458;2023-09-19T15:14:35;21.20;53.10
38223;DHT22;24024;51.186;6.458;2023-09-19T15:17:02;21.10;53.20
38223;DHT22;24024;51.186;6.458;2023-09-19T15:19:31;21.10;53.50
38223;DHT22;24024;51.186;6.458;2023-09-19T15:21:58;21.10;53.70
38223;DHT22;24024;51.186;6.458;2023-09-19T15:24:25;21.10;53.80
38223;DHT22;24024;51.186;6.458;2023-09-19T15:26:53;21.20;53.50
38223;DHT22;24024;51.186;6.458;2023-09-19T15:29:22;21.20;53.50
38223;DHT22;24024;51.186;6.458;2023-09-19T15:31:49;21.20;53.60
38223;DHT22;24024;51.186;6.458;2023-09-19T15:34:16;21.20;53.80
38223;DHT22;24024;51.186;6.458;2023-09-19T15:36:45;21.30;54.10
38223;DHT22;24024;51.186;6.458;2023-09-19T15:39:12;21.20;54.00
38223;DHT22;24024;51.186;6.458;2023-09-19T15:41:45;21.30;53.60
38223;DHT22;24024;51.186;6.458;2023-09-19T15:44:14;21.20;53.90
38223;DHT22;24024;51.186;6.458;2023-09-19T15:46:42;21.20;54.30
38223;DHT22;24024;51.186;6.458;2023-09-19T15:49:10;21.30;54.10
38223;DHT22;24024;51.186;6.458;2023-09-19T15:51:39;21.40;54.10
38223;DHT22;24024;51.186;6.458;2023-09-19T15:54:14;21.50;54.00
38223;DHT22;24024;51.186;6.458;2023-09-19T15:56:44;21.60;53.80
38223;DHT22;24024;51.186;6.458;2023-09-19T15:59:12;21.80;53.60
38223;DHT22;24024;51.186;6.458;2023-09-19T16:01:44;21.90;53.00
38223;DHT22;24024;51.186;6.458;2023-09-19T16:04:14;22.00;53.20
38223;DHT22;24024;51.186;6.458;2023-09-19T16:06:41;22.00;52.90
38223;DHT22;24024;51.186;6.458;2023-09-19T16:09:08;22.10;52.80
38223;DHT22;24024;51.186;6.458;2023-09-19T16:11:37;22.10;52.80
38223;DHT22;24024;51.186;6.458;2023-09-19T16:14:04;22.10;52.50
38223;DHT22;24024;51.186;6.458;2023-09-19T16:16:33;22.10;52.80
38223;DHT22;24024;51.186;6.458;2023-09-19T16:19:02;22.10;51.60
38223;DHT22;24024;51.186;6.458;2023-09-19T16:21:32;22.00;52.20
38223;DHT22;24024;51.186;6.458;2023-09-19T16:24:00;22.10;52.50
38223;DHT22;24024;51.186;6.458;2023-09-19T16:26:27;22.00;52.20
38223;DHT22;24024;51.186;6.458;2023-09-19T16:28:57;22.00;52.00
38223;DHT22;24024;51.186;6.458;2023-09-19T16:31:28;21.90;51.90
38223;DHT22;24024;51.186;6.458;2023-09-19T16:33:55;21.70;52.50
38223;DHT22;24024;51.186;6.458;2023-09-19T16:36:23;21.70;52.60
38223;DHT22;24024;51.186;6.458;2023-09-19T16:38:50;21.80;52.60
38223;DHT22;24024;51.186;6.458;2023-09-19T16:41:18;21.60;52.70
38223;DHT22;24024;51.186;6.458;2023-09-19T16:43:46;21.40;53.20
38223;DHT22;24024;51.186;6.458;2023-09-19T16:46:13;21.40;53.40
38223;DHT22;24024;51.186;6.458;2023-09-19T16:48:45;21.30;53.40
38223;DHT22;24024;51.186;6.458;2023-09-19T16:51:28;21.50;53.40
38223;DHT22;24024;51.186;6.458;2023-09-19T16:53:57;21.50;53.10
38223;DHT22;24024;51.186;6.458;2023-09-19T16:56:27;21.30;53.10
38223;DHT22;24024;51.186;6.458;2023-09-19T16:58:55;21.30;53.70
38223;DHT22;24024;51.186;6.458;2023-09-19T17:01:25;21.30;53.70
38223;DHT22;24024;51.186;6.458;2023-09-19T17:03:54;21.20;53.90